地図

経路データ

SID SEASON NUMBER BASIN SUBBASIN NAME ISO_TIME NATURE LAT LON WMO_WIND WMO_PRES WMO_AGENCY TRACK_TYPE DIST2LAND LANDFALL IFLAG USA_AGENCY USA_ATCF_ID USA_LAT USA_LON USA_RECORD USA_STATUS USA_WIND USA_PRES USA_SSHS USA_R34_NE USA_R34_SE USA_R34_SW USA_R34_NW USA_R50_NE USA_R50_SE USA_R50_SW USA_R50_NW USA_R64_NE USA_R64_SE USA_R64_SW USA_R64_NW USA_POCI USA_ROCI USA_RMW USA_EYE TOKYO_LAT TOKYO_LON TOKYO_GRADE TOKYO_WIND TOKYO_PRES TOKYO_R50_DIR TOKYO_R50_LONG TOKYO_R50_SHORT TOKYO_R30_DIR TOKYO_R30_LONG TOKYO_R30_SHORT TOKYO_LAND CMA_LAT CMA_LON CMA_CAT CMA_WIND CMA_PRES HKO_LAT HKO_LON HKO_CAT HKO_WIND HKO_PRES NEWDELHI_LAT NEWDELHI_LON NEWDELHI_GRADE NEWDELHI_WIND NEWDELHI_PRES NEWDELHI_CI NEWDELHI_DP NEWDELHI_POCI REUNION_LAT REUNION_LON REUNION_TYPE REUNION_WIND REUNION_PRES REUNION_TNUM REUNION_CI REUNION_RMW REUNION_R34_NE REUNION_R34_SE REUNION_R34_SW REUNION_R34_NW REUNION_R50_NE REUNION_R50_SE REUNION_R50_SW REUNION_R50_NW REUNION_R64_NE REUNION_R64_SE REUNION_R64_SW REUNION_R64_NW BOM_LAT BOM_LON BOM_TYPE BOM_WIND BOM_PRES BOM_TNUM BOM_CI BOM_RMW BOM_R34_NE BOM_R34_SE BOM_R34_SW BOM_R34_NW BOM_R50_NE BOM_R50_SE BOM_R50_SW BOM_R50_NW BOM_R64_NE BOM_R64_SE BOM_R64_SW BOM_R64_NW BOM_ROCI BOM_POCI BOM_EYE BOM_POS_METHOD BOM_PRES_METHOD NADI_LAT NADI_LON NADI_CAT NADI_WIND NADI_PRES WELLINGTON_LAT WELLINGTON_LON WELLINGTON_WIND WELLINGTON_PRES DS824_LAT DS824_LON DS824_STAGE DS824_WIND DS824_PRES TD9636_LAT TD9636_LON TD9636_STAGE TD9636_WIND TD9636_PRES TD9635_LAT TD9635_LON TD9635_WIND TD9635_PRES TD9635_ROCI NEUMANN_LAT NEUMANN_LON NEUMANN_CLASS NEUMANN_WIND NEUMANN_PRES MLC_LAT MLC_LON MLC_CLASS MLC_WIND MLC_PRES USA_GUST BOM_GUST BOM_GUST_PER REUNION_GUST REUNION_GUST_PER USA_SEAHGT USA_SEARAD_NE USA_SEARAD_SE USA_SEARAD_SW USA_SEARAD_NW STORM_SPEED STORM_DIR
2005179N22088 2005 35 NI BB NOT_NAMED 2005-06-27 12:00:00 NR 21.5000 88.0000 25 990 newdelhi main 23 0 ____O_________ -1 21.5000 88.0000 D 25 990 0.00000 4 13 309
2005179N22088 2005 35 NI BB NOT_NAMED 2005-06-27 15:00:00 NR 21.8956 87.4798 main 0 0 ____P_________ -1 21.8956 87.4798 D 12 309
2005179N22088 2005 35 NI BB NOT_NAMED 2005-06-27 18:00:00 NR 22.2663 86.9877 main 0 0 ____P_________ -1 22.2663 86.9877 D 11 309
2005179N22088 2005 35 NI BB NOT_NAMED 2005-06-27 21:00:00 NR 22.5891 86.5555 main 0 0 ____P_________ -1 22.5891 86.5555 D 9 309
2005179N22088 2005 35 NI BB NOT_NAMED 2005-06-28 00:00:00 NR 22.8411 86.2154 main 0 0 ____P_________ -1 22.8411 86.2154 D 7 309
2005179N22088 2005 35 NI BB NOT_NAMED 2005-06-28 03:00:00 NR 23.0000 86.0000 25 990 newdelhi main 0 0 ____O_________ -1 23.0000 86.0000 D 25 990 0.00000 4 3 309
2005179N22088 2005 35 NI BB NOT_NAMED 2005-06-28 06:00:00 NR 23.0546 85.9258 main 0 0 ____P_________ -1 23.0546 85.9258 D 25 990 4 1 305
2005179N22088 2005 35 NI BB NOT_NAMED 2005-06-28 09:00:00 NR 23.0393 85.9465 main 0 0 ____P_________ -1 23.0393 85.9465 D 25 990 4 1 128
2005179N22088 2005 35 NI BB NOT_NAMED 2005-06-28 12:00:00 NR 23.0000 86.0000 25 990 newdelhi main 0 0 ____O_________ -1 23.0000 86.0000 D 25 990 0.00000 4 1 131
2005179N22088 2005 35 NI BB NOT_NAMED 2005-06-28 15:00:00 NR 22.9705 86.0293 main 0 0 ____P_________ -1 22.9705 86.0293 D 1 142
2005179N22088 2005 35 NI BB NOT_NAMED 2005-06-28 18:00:00 NR 22.9376 86.0621 main 0 0 ____P_________ -1 22.9376 86.0621 D 1 138
2005179N22088 2005 35 NI BB NOT_NAMED 2005-06-28 21:00:00 NR 22.9193 86.0802 main 0 0 ____P_________ -1 22.9193 86.0802 D 0 0
2005179N22088 2005 35 NI BB NOT_NAMED 2005-06-29 00:00:00 NR 22.9341 86.0655 main 0 0 ____P_________ -1 22.9341 86.0655 D 1 320
2005179N22088 2005 35 NI BB NOT_NAMED 2005-06-29 03:00:00 NR 23.0000 86.0000 25 990 newdelhi main 0 0 ____O_________ -1 23.0000 86.0000 D 25 990 0.00000 4 3 322
2005179N22088 2005 35 NI BB NOT_NAMED 2005-06-29 06:00:00 NR 23.1448 85.8817 main 0 0 ____P_________ -1 23.1448 85.8817 D 25 990 4 4 321
2005179N22088 2005 35 NI BB NOT_NAMED 2005-06-29 09:00:00 NR 23.3234 85.7133 main 0 0 ____P_________ -1 23.3234 85.7133 D 25 990 4 5 315
2005179N22088 2005 35 NI BB NOT_NAMED 2005-06-29 12:00:00 NR 23.5000 85.5000 25 990 newdelhi main 0 0 ____O_________ -1 23.5000 85.5000 D 25 990 0.00000 4 5 311
2005179N22088 2005 35 NI BB NOT_NAMED 2005-06-29 15:00:00 NR 23.6430 85.3173 main 0 0 ____P_________ -1 23.6430 85.3173 D 5 306
2005179N22088 2005 35 NI BB NOT_NAMED 2005-06-29 18:00:00 NR 23.7677 85.1015 main 0 0 ____P_________ -1 23.7677 85.1015 D 5 297
2005179N22088 2005 35 NI BB NOT_NAMED 2005-06-29 21:00:00 NR 23.8710 84.8270 main 0 0 ____P_________ -1 23.8710 84.8270 D 6 287
2005179N22088 2005 35 NI BB NOT_NAMED 2005-06-30 00:00:00 NR 23.9496 84.4684 main 0 0 ____P_________ -1 23.9496 84.4684 D 8 280
2005179N22088 2005 35 NI BB NOT_NAMED 2005-06-30 03:00:00 NR 24.0000 84.0000 25 990 newdelhi main 0 0 ____O_________ -1 24.0000 84.0000 D 25 990 0.00000 4 10 273
2005179N22088 2005 35 NI BB NOT_NAMED 2005-06-30 06:00:00 NR 24.0069 83.3516 main 0 0 ____P_________ -1 24.0069 83.3516 D 25 990 4 12 270
2005179N22088 2005 35 NI BB NOT_NAMED 2005-06-30 09:00:00 NR 23.9966 82.6472 main 0 0 ____P_________ -1 23.9966 82.6472 D 25 990 4 12 270
2005179N22088 2005 35 NI BB NOT_NAMED 2005-06-30 12:00:00 NR 24.0000 82.0000 25 990 newdelhi main 0 0 ____O_________ -1 24.0000 82.0000 D 25 990 0.00000 4 10 274
2005179N22088 2005 35 NI BB NOT_NAMED 2005-06-30 15:00:00 NR 24.0768 81.5030 main 0 0 ____P_________ -1 24.0768 81.5030 D 8 283
2005179N22088 2005 35 NI BB NOT_NAMED 2005-06-30 18:00:00 NR 24.1872 81.1117 main 0 0 ____P_________ -1 24.1872 81.1117 D 7 290
2005179N22088 2005 35 NI BB NOT_NAMED 2005-06-30 21:00:00 NR 24.3093 80.8189 main 0 0 ____P_________ -1 24.3093 80.8189 D 5 297
2005179N22088 2005 35 NI BB NOT_NAMED 2005-07-01 00:00:00 NR 24.4210 80.6173 main 0 0 ____P_________ -1 24.4210 80.6173 D 3 303
2005179N22088 2005 35 NI BB NOT_NAMED 2005-07-01 03:00:00 NR 24.5000 80.5000 25 990 newdelhi main 0 0 ____O_________ -1 24.5000 80.5000 D 25 990 0.00000 4 2 302
2005179N22088 2005 35 NI BB NOT_NAMED 2005-07-01 06:00:00 NR 24.5181 80.4447 main 0 0 ____P_________ -1 24.5181 80.4447 D 25 990 4 0 289
2005179N22088 2005 35 NI BB NOT_NAMED 2005-07-01 09:00:00 NR 24.5130 80.4602 main 0 0 ____P_________ -1 24.5130 80.4602 D 25 990 4 1 109
2005179N22088 2005 35 NI BB NOT_NAMED 2005-07-01 12:00:00 NR 24.5000 80.5000 25 990 newdelhi main 0 0 ____O_________ -1 24.5000 80.5000 D 25 990 0.00000 4 0 109
2005179N22088 2005 35 NI BB NOT_NAMED 2005-07-01 15:00:00 NR 24.5000 80.5000 main 0 0 ____P_________ -1 24.5000 80.5000 D 0 0
2005179N22088 2005 35 NI BB NOT_NAMED 2005-07-01 18:00:00 NR 24.5000 80.5000 main 0 0 ____P_________ -1 24.5000 80.5000 D 0 0
2005179N22088 2005 35 NI BB NOT_NAMED 2005-07-01 21:00:00 NR 24.5000 80.5000 main 0 0 ____P_________ -1 24.5000 80.5000 D 0 0
2005179N22088 2005 35 NI BB NOT_NAMED 2005-07-02 00:00:00 NR 24.5000 80.5000 main 0 0 ____P_________ -1 24.5000 80.5000 D 0 0
2005179N22088 2005 35 NI BB NOT_NAMED 2005-07-02 03:00:00 NR 24.5000 80.5000 25 990 newdelhi main 0 0 ____O_________ -1 24.5000 80.5000 D 25 990 0.00000 4 0 0
2005179N22088 2005 35 NI BB NOT_NAMED 2005-07-02 06:00:00 NR 24.5000 80.5000 main 0 0 ____P_________ -1 24.5000 80.5000 D 25 990 4 0 0
2005179N22088 2005 35 NI BB NOT_NAMED 2005-07-02 09:00:00 NR 24.5000 80.5000 main 0 0 ____P_________ -1 24.5000 80.5000 D 25 990 4 0 0
2005179N22088 2005 35 NI BB NOT_NAMED 2005-07-02 12:00:00 NR 24.5000 80.5000 25 990 newdelhi main 0 0 ____O_________ -1 24.5000 80.5000 D 25 990 0.00000 4 0 0
2005179N22088 2005 35 NI BB NOT_NAMED 2005-07-02 15:00:00 NR 24.5000 80.5000 main 0 0 ____P_________ -1 24.5000 80.5000 D 0 0
2005179N22088 2005 35 NI BB NOT_NAMED 2005-07-02 18:00:00 NR 24.5000 80.5000 main 0 0 ____P_________ -1 24.5000 80.5000 D 0 0
2005179N22088 2005 35 NI BB NOT_NAMED 2005-07-02 21:00:00 NR 24.5000 80.5000 main 0 0 ____P_________ -1 24.5000 80.5000 D 0 0
2005179N22088 2005 35 NI BB NOT_NAMED 2005-07-03 00:00:00 NR 24.5000 80.5000 main 0 0 ____P_________ -1 24.5000 80.5000 D 0 0
2005179N22088 2005 35 NI BB NOT_NAMED 2005-07-03 03:00:00 NR 24.5000 80.5000 25 990 newdelhi main 0 0 ____O_________ -1 24.5000 80.5000 D 25 990 0.00000 4 0 0
2005179N22088 2005 35 NI BB NOT_NAMED 2005-07-03 06:00:00 NR 24.4867 80.5263 main 0 0 ____P_________ -1 24.4867 80.5263 D 25 990 4 0 118
2005179N22088 2005 35 NI BB NOT_NAMED 2005-07-03 09:00:00 NR 24.4815 80.5366 main 0 0 ____P_________ -1 24.4815 80.5366 D 25 990 4 0 0
2005179N22088 2005 35 NI BB NOT_NAMED 2005-07-03 12:00:00 NR 24.5000 80.5000 25 990 newdelhi main 0 0 ____O_________ -1 24.5000 80.5000 D 25 990 0.00000 4 2 299
2005179N22088 2005 35 NI BB NOT_NAMED 2005-07-03 15:00:00 NR 24.5786 80.3442 main 0 0 ____P_________ -1 24.5786 80.3442 D 4 299
2005179N22088 2005 35 NI BB NOT_NAMED 2005-07-03 18:00:00 NR 24.6899 80.1228 main 0 0 ____P_________ -1 24.6899 80.1228 D 5 299
2005179N22088 2005 35 NI BB NOT_NAMED 2005-07-03 21:00:00 NR 24.8117 79.8791 main 0 0 ____P_________ -1 24.8117 79.8791 D 5 299
2005179N22088 2005 35 NI BB NOT_NAMED 2005-07-04 00:00:00 NR 24.9223 79.6569 main 0 0 ____P_________ -1 24.9223 79.6569 D 4 299
2005179N22088 2005 35 NI BB NOT_NAMED 2005-07-04 03:00:00 NR 25.0000 79.5000 25 990 newdelhi main 0 0 ____O_________ -1 25.0000 79.5000 D 25 990 0.00000 4 2 291
2005179N22088 2005 35 NI BB NOT_NAMED 2005-07-04 06:00:00 NR 24.9917 79.4500 main 0 0 ____P_________ -1 24.9917 79.4500 D 25 990 4 0 233
2005179N22088 2005 35 NI BB NOT_NAMED 2005-07-04 09:00:00 NR 24.9764 79.4553 main 0 0 ____P_________ -1 24.9764 79.4553 D 25 990 4 0 78
2005179N22088 2005 35 NI BB NOT_NAMED 2005-07-04 12:00:00 NR 25.0000 79.5000 25 990 newdelhi main 0 0 ____O_________ -1 25.0000 79.5000 D 25 990 0.00000 4 2 32
2005179N22088 2005 35 NI BB NOT_NAMED 2005-07-04 15:00:00 NR 25.1565 79.5776 main 0 0 ____P_________ -1 25.1565 79.5776 D 4 24
2005179N22088 2005 35 NI BB NOT_NAMED 2005-07-04 18:00:00 NR 25.3784 79.6881 main 0 0 ____P_________ -1 25.3784 79.6881 D 5 24
2005179N22088 2005 35 NI BB NOT_NAMED 2005-07-04 21:00:00 NR 25.6220 79.8099 main 0 0 ____P_________ -1 25.6220 79.8099 D 5 24
2005179N22088 2005 35 NI BB NOT_NAMED 2005-07-05 00:00:00 NR 25.8438 79.9213 main 0 0 ____P_________ -1 25.8438 79.9213 D 4 24
2005179N22088 2005 35 NI BB NOT_NAMED 2005-07-05 03:00:00 NR 26.0000 80.0000 25 990 newdelhi main 0 0 ____O_________ -1 26.0000 80.0000 D 25 990 0.00000 4 2 24
2005179N22088 2005 35 NI BB NOT_NAMED 2005-07-05 06:00:00 NR 26.0605 80.0306 main 0 0 ____P_________ -1 26.0605 80.0306 D 25 990 4 1 0
2005179N22088 2005 35 NI BB NOT_NAMED 2005-07-05 09:00:00 NR 26.0484 80.0245 main 0 0 ____P_________ -1 26.0484 80.0245 D 25 990 4 1 0
2005179N22088 2005 35 NI BB NOT_NAMED 2005-07-05 12:00:00 NR 26.0000 80.0000 25 990 newdelhi main 0 ____O_________ -1 26.0000 80.0000 D 25 990 0.00000 4 1 0

IBTrACS Databaseについて

本データベースは、米国NOAAが公開する1842年以降の世界の熱帯低気圧のベストトラックデータアーカイブInternational Best Track Archive for Climate Stewardship (IBTrACS)を、ウェブで閲覧しやすい形式に変換したものです。

最終更新日:2021-12-06